Nearby METAR Reports

 

KHFD - Hartford/Brainar, Connecticut, USA
Distance from station: ESE 5mi, 8km
Updated: Sun, 05-Feb-2023 7:53am EST
Mostly cloudy
Mostly cloudy
 Wind from SSW
Wind: SSW 6 mph , 9 km/h
Temperature: 32°F , 0°C
Wind Chill: 26°F , -3°C
Dew Point: 18°F , -8°C
Humidity: 55%
Barometer: 30.25 inHg , 1024.4 hPa
Clouds: Mostly cloudy
Visibility: 10 miles , 16 km
Cloud details: Mostly cloudy 20000 ft
2023/02/05 12:53 KHFD 051253Z 21005KT 10SM BKN200 00/M08 A3025 RMK AO2 SLP244 T00001083
KBDL - Windsor Locks, Connecticut, USA
Distance from station: NNE 12mi, 20km
Updated: Sun, 05-Feb-2023 7:51am EST
Mostly cloudy
Mostly cloudy
 Wind from SW
Wind: SW 7 mph , 11 km/h
Temperature: 28°F , -2°C
Wind Chill: 21°F , -6°C
Dew Point: 16°F , -9°C
Humidity: 59%
Barometer: 30.24 inHg , 1024 hPa
Clouds: Mostly cloudy
Visibility: 10 miles , 16 km
Cloud details: Mostly cloudy 21000 ft
Mostly cloudy 24000 ft
2023/02/05 12:51 KBDL 051251Z 23006KT 10SM BKN210 BKN240 M02/M09 A3024 RMK AO2 SLP241 T10221094
 
KMMK - Meriden, Connecticut, USA
Distance from station: SSW 18mi, 28km
Updated: Sun, 05-Feb-2023 7:53am EST
Clear
Clear
 Wind from SSW
Wind: SSW 6 mph , 9 km/h
Temperature: 32°F , 0°C
Wind Chill: 26°F , -3°C
Dew Point: 18°F , -8°C
Humidity: 55%
Barometer: 30.25 inHg , 1024.4 hPa
Clouds: Clear
Visibility: 10 miles , 16 km
2023/02/05 12:53 KMMK 051253Z AUTO 20005KT 10SM CLR 00/M08 A3025 RMK AO2 SLP246 T00001083
KBAF - Westfield, Massachusetts, USA
Distance from station: N 28mi, 45km
Updated: Sun, 05-Feb-2023 7:53am EST
Clear
Clear
 Wind from S
Wind: S 12 mph , 19 km/h
Temperature: 25°F , -4°C
Wind Chill: 14°F , -10°C
Dew Point: 12°F , -11°C
Humidity: 59%
Barometer: 30.21 inHg , 1023 hPa
Clouds: Clear
Visibility: 10 miles , 16 km
2023/02/05 12:53 KBAF 051253Z 18010KT 10SM CLR M04/M11 A3021 RMK AO2 SLP240 T10391111
 
KIJD - Willimantic, Connecticut, USA
Distance from station: E 29mi, 46km
Updated: Sun, 05-Feb-2023 7:52am EST
Clear
Clear
 Wind from calm
Wind: Calm
Temperature: 18°F , -8°C
Dew Point: 10°F , -12°C
Humidity: 73%
Barometer: 30.24 inHg , 1024 hPa
Clouds: Clear
Visibility: 10 miles , 16 km
2023/02/05 12:52 KIJD 051252Z AUTO 00000KT 10SM CLR M08/M12 A3024 RMK AO2 SLP245 T10831122
KOXC - Oxford/Waterbury, Connecticut, USA
Distance from station: SW 29mi, 46km
Updated: Sun, 05-Feb-2023 7:51am EST
Clear
Clear
 Wind from SW
Wind: SW 6 mph , 9 km/h
Temperature: 25°F , -4°C
Wind Chill: 18°F , -8°C
Dew Point: 18°F , -8°C
Humidity: 74%
Barometer: 30.23 inHg , 1023.7 hPa
Clouds: Clear
Visibility: 10 miles , 16 km
2023/02/05 12:51 KOXC 051251Z 23005KT 10SM CLR M04/M08 A3023 RMK AO2 SLP260 T10391078
 
KSNC - Chester, Connecticut, USA
Distance from station: SSE 29mi, 47km
Updated: Sun, 05-Feb-2023 7:55am EST
Clear
Clear
 Wind from SW
Wind: SW 12 mph , 19 km/h, Gust: 22 mph , 35 km/h
Temperature: 34°F , 1°C
Wind Chill: 25°F , -4°C
Dew Point: 16°F , -9°C
Humidity: 48%
Barometer: 30.23 inHg , 1023.7 hPa
Clouds: Clear
Visibility: 10 miles , 16 km
2023/02/05 12:55 KSNC 051255Z AUTO 22010G19KT 190V260 10SM CLR 01/M09 A3023 RMK AO2
KCEF - Chicopee/Westove, Massachusetts, USA
Distance from station: NNE 32mi, 52km
Updated: Sun, 05-Feb-2023 7:55am EST
Clear
Clear
 Wind from SSW
Wind: SSW 13 mph , 20 km/h
Temperature: 25°F , -4°C
Wind Chill: 13°F , -11°C
Dew Point: 12°F , -11°C
Humidity: 59%
Barometer: 30.19 inHg , 1022.4 hPa
Clouds: Clear
Visibility: 10 miles , 16 km
2023/02/05 12:55 KCEF 051255Z AUTO 21011KT 10SM CLR M04/M11 A3019 RMK AO2 SLP234 T10391107
 
KHVN - New Haven/Tweed, Connecticut, USA
Distance from station: S 35mi, 56km
Updated: Sun, 05-Feb-2023 7:53am EST
Clear
Clear
 Wind from SW
Wind: SW 10 mph , 17 km/h, Gust: 23 mph , 37 km/h
Temperature: 37°F , 3°C
Wind Chill: 30°F , -1°C
Dew Point: 21°F , -6°C
Humidity: 52%
Barometer: 30.26 inHg , 1024.7 hPa
Clouds: Clear
Visibility: 10 miles , 16 km
2023/02/05 12:53 KHVN 051253Z 22009G20KT 160V240 10SM CLR 03/M06 A3026 RMK AO2 SLP246 T00281061
KBDR - Bridgeport, Connecticut, USA
Distance from station: SSW 46mi, 74km
Updated: Sun, 05-Feb-2023 7:52am EST
Clear
Clear
 Wind from SW
Wind: SW 17 mph , 28 km/h
Temperature: 34°F , 1°C
Wind Chill: 23°F , -5°C
Dew Point: 21°F , -6°C
Humidity: 60%
Barometer: 30.27 inHg , 1025.1 hPa
Clouds: Clear
Visibility: 10 miles , 16 km
2023/02/05 12:52 KBDR 051252Z 23015KT 10SM CLR 01/M06 A3027 RMK AO2 SLP250 T00111061
 
KGON - Groton/New Londo, Connecticut, USA
Distance from station: SE 46mi, 75km
Updated: Sun, 05-Feb-2023 7:56am EST
Clear
Clear
 Wind from SW
Wind: SW 17 mph , 28 km/h
Temperature: 39°F , 4°C
Wind Chill: 30°F , -1°C
Dew Point: 25°F , -4°C
Humidity: 56%
Barometer: 30.26 inHg , 1024.7 hPa
Clouds: Clear
Visibility: 10 miles , 16 km
2023/02/05 12:56 KGON 051256Z 23015KT 10SM CLR 04/M04 A3026 RMK AO2 SLP246 T00391039 $
KDXR - Danbury, Connecticut, USA
Distance from station: SW 47mi, 76km
Updated: Sun, 05-Feb-2023 7:53am EST
Clear
Clear
 Wind from SW
Wind: SW 7 mph , 11 km/h
Temperature: 30°F , -1°C
Wind Chill: 23°F , -5°C
Dew Point: 16°F , -9°C
Humidity: 55%
Barometer: 30.23 inHg , 1023.7 hPa
Clouds: Clear
Visibility: 10 miles , 16 km
2023/02/05 12:53 KDXR 051253Z 23006KT 10SM CLR M01/M09 A3023 RMK AO2 SLP244 T10061094 $
 
KPSF - Pittsfield, Massachusetts, USA
Distance from station: NNW 54mi, 87km
Updated: Sun, 05-Feb-2023 7:54am EST
Clear
Clear
 Wind from varies
Wind: varies 3 mph , 6 km/h
Temperature: 21°F , -6°C
Dew Point: 10°F , -12°C
Humidity: 63%
Barometer: 30.11 inHg , 1019.6 hPa
Clouds: Clear
Visibility: 10 miles , 16 km
2023/02/05 12:54 KPSF 051254Z AUTO VRB03KT 10SM CLR M06/M12 A3011 RMK AO2 SLP223 T10561122
KWST - Westerly, Rhode Island, USA
Distance from station: ESE 56mi, 91km
Updated: Sun, 05-Feb-2023 7:53am EST
Clear
Clear
 Wind from SW
Wind: SW 9 mph , 15 km/h, Gust: 21 mph , 33 km/h
Temperature: 37°F , 3°C
Wind Chill: 30°F , -1°C
Dew Point: 27°F , -3°C
Humidity: 65%
Barometer: 30.26 inHg , 1024.7 hPa
Clouds: Clear
Visibility: 10 miles , 16 km
2023/02/05 12:53 KWST 051253Z AUTO 22008G18KT 10SM CLR 03/M03 A3026 RMK AO2 SLP248 T00281033
 
KORH - Worcester, Massachusetts, USA
Distance from station: NE 57mi, 92km
Updated: Sun, 05-Feb-2023 7:54am EST
Clear
Clear
 Wind from SW
Wind: SW 17 mph , 28 km/h, Gust: 24 mph , 39 km/h
Temperature: 27°F , -3°C
Wind Chill: 14°F , -10°C
Dew Point: 12°F , -11°C
Humidity: 54%
Barometer: 30.14 inHg , 1020.7 hPa
Clouds: Clear
Visibility: 10 miles , 16 km
2023/02/05 12:54 KORH 051254Z 23015G21KT 10SM CLR M03/M11 A3014 RMK AO2 SLP226 T10281106
KPOU - Poughkeepsie, New York, USA
Distance from station: W 60mi, 96km
Updated: Sun, 05-Feb-2023 7:53am EST
Clear
Clear
 Wind from calm
Wind: Calm
Temperature: 21°F , -6°C
Dew Point: 14°F , -10°C
Humidity: 74%
Barometer: 30.23 inHg , 1023.7 hPa
Clouds: Clear
Visibility: 10 miles , 16 km
2023/02/05 12:53 KPOU 051253Z 00000KT 10SM CLR M06/M10 A3023 RMK AO2 SLP237 T10561100 $
 
KORE - Orange, Massachusetts, USA
Distance from station: NNE 60mi, 97km
Updated: Sun, 05-Feb-2023 7:52am EST
Clear
Clear
 Wind from S
Wind: S 13 mph , 20 km/h
Temperature: 23°F , -5°C
Wind Chill: 11°F , -12°C
Dew Point: 12°F , -11°C
Humidity: 63%
Barometer: 30.18 inHg , 1022 hPa
Clouds: Clear
Visibility: 10 miles , 16 km
2023/02/05 12:52 KORE 051252Z AUTO 19011KT 10SM CLR M05/M11 A3018 RMK AO2 SLP230 T10501111
KHTO - East Hampton, New York, USA
Distance from station: SSE 62mi, 99km
Updated: Sat, 21-May-2022 1:35pm EDT
NOT Current
Clear
Clear
 Wind from WNW
Wind: WNW 5 mph , 7 km/h
Temperature: 81°F , 27°C
Heat Index: 83°F , 28°C
Dew Point: 66°F , 19°C
Humidity: 62%
Barometer: 30.00 inHg , 1015.9 hPa
Clouds: Clear
Visibility: 10 miles , 16 km
2022/05/21 17:35 KHTO 211735Z AUTO 30004KT 10SM CLR 27/19 A3000 RMK AO2 T02670193
 
KFOK - Westhampton Beac, New York, USA
Distance from station: S 63mi, 102km
Updated: Sun, 05-Feb-2023 7:53am EST
Clear
Clear
 Wind from SW
Wind: SW 16 mph , 26 km/h, Gust: 24 mph , 39 km/h
Temperature: 39°F , 4°C
Wind Chill: 30°F , -1°C
Dew Point: 27°F , -3°C
Humidity: 61%
Barometer: 30.28 inHg , 1025.4 hPa
Clouds: Clear
Visibility: 10 miles , 16 km
2023/02/05 12:53 KFOK 051253Z 22014G21KT 10SM CLR 04/M03 A3028 RMK AO2 SLP255 T00391028
KMTP - Montauk, New York, USA
Distance from station: SE 64mi, 104km
Updated: Sun, 05-Feb-2023 7:54am EST

 Wind from SW
Wind: SW 12 mph , 19 km/h, Gust: 22 mph , 35 km/h
Temperature: 39°F , 4°C
Wind Chill: 32°F , 0°C
Dew Point: 27°F , -3°C
Humidity: 61%
Barometer: 30.28 inHg , 1025.4 hPa
2023/02/05 12:54 KMTP 051254Z AUTO 23010G19KT 04/M03 A3028 RMK AO1 SLP252 T00441028